createdAt,value
2019-05-03T00:01:45.627Z,2.15
2019-05-03T00:06:52.026Z,2.47
2019-05-03T00:11:56.938Z,2.50
2019-05-03T00:17:02.356Z,2.08
2019-05-03T00:22:07.245Z,2.25
2019-05-03T00:27:12.475Z,2.00
2019-05-03T00:32:17.444Z,2.58
2019-05-03T00:37:24.253Z,2.10
2019-05-03T00:42:29.000Z,2.45
2019-05-03T00:47:34.342Z,2.50
2019-05-03T00:52:39.092Z,1.95
2019-05-03T00:57:46.387Z,2.15
2019-05-03T01:02:51.701Z,2.10
2019-05-03T01:07:56.605Z,1.60
2019-05-03T01:13:01.717Z,1.35
2019-05-03T01:18:08.669Z,1.50
2019-05-03T01:23:13.539Z,1.15
2019-05-03T01:28:18.648Z,1.30
2019-05-03T01:33:23.570Z,1.30
2019-05-03T01:38:28.374Z,1.40
2019-05-03T01:43:33.051Z,1.22
2019-05-03T01:48:56.506Z,1.35
2019-05-03T01:54:04.094Z,1.20
2019-05-03T01:59:08.836Z,1.20
2019-05-03T02:04:21.338Z,1.30
2019-05-03T02:09:25.898Z,1.23
2019-05-03T02:14:31.703Z,1.10
2019-05-03T02:19:36.634Z,1.45
2019-05-03T02:24:42.230Z,1.40
2019-05-03T02:29:47.149Z,1.15
2019-05-03T02:34:53.458Z,1.30
2019-05-03T02:39:58.480Z,1.42
2019-05-03T02:45:06.055Z,1.20
2019-05-03T02:50:16.577Z,1.10
2019-05-03T02:55:20.451Z,1.20
2019-05-03T03:00:49.845Z,1.17
2019-05-03T03:05:57.116Z,1.40
2019-05-03T03:11:06.342Z,1.00
2019-05-03T03:16:20.295Z,1.10
2019-05-03T03:21:26.029Z,1.40
2019-05-03T03:26:41.189Z,1.25
2019-05-03T03:32:11.011Z,1.45
2019-05-03T03:37:15.970Z,0.97
2019-05-03T03:42:21.716Z,1.37
2019-05-03T03:47:30.139Z,1.00
2019-05-03T03:52:36.626Z,1.52
2019-05-03T03:57:41.920Z,1.67
2019-05-03T04:02:46.640Z,1.47
2019-05-03T04:07:51.432Z,1.43
2019-05-03T04:13:02.216Z,1.20
2019-05-03T04:18:18.762Z,1.47
2019-05-03T04:23:26.083Z,1.33
2019-05-03T04:28:31.316Z,1.47
2019-05-03T04:33:36.235Z,1.37
2019-05-03T04:38:45.184Z,1.37
2019-05-03T04:43:48.957Z,1.20
2019-05-03T04:48:56.142Z,1.10
2019-05-03T04:54:25.291Z,1.67
2019-05-03T04:59:30.253Z,1.23
2019-05-03T05:04:35.699Z,1.40
2019-05-03T05:09:40.832Z,1.30
2019-05-03T05:14:46.003Z,1.30
2019-05-03T05:20:09.025Z,1.70
2019-05-03T05:25:17.252Z,1.05
2019-05-03T05:30:22.075Z,1.30
2019-05-03T05:35:27.076Z,1.40
2019-05-03T05:40:31.768Z,1.47
2019-05-03T05:45:36.635Z,1.62
2019-05-03T05:50:44.855Z,1.60
2019-05-03T05:55:59.844Z,1.37
2019-05-03T06:01:14.485Z,1.50
2019-05-03T06:06:26.980Z,1.60
2019-05-03T06:11:38.788Z,1.60
2019-05-03T06:16:50.307Z,1.20
2019-05-03T06:22:08.155Z,1.60
2019-05-03T06:27:19.105Z,1.53
2019-05-03T06:32:27.917Z,1.50
2019-05-03T06:37:37.447Z,1.50
2019-05-03T06:42:52.379Z,1.23
2019-05-03T06:47:50.066Z,1.67
2019-05-03T06:52:54.931Z,1.72
2019-05-03T06:58:02.147Z,1.25
2019-05-03T07:03:44.740Z,1.43
2019-05-03T07:09:08.733Z,1.40
2019-05-03T07:14:15.439Z,1.35
2019-05-03T07:19:20.117Z,1.35
2019-05-03T07:24:24.974Z,1.30
2019-05-03T07:29:30.759Z,1.30
2019-05-03T07:34:35.487Z,1.20
2019-05-03T07:39:40.199Z,1.10
2019-05-03T07:44:45.111Z,1.55
2019-05-03T07:49:49.837Z,1.37
2019-05-03T07:54:55.239Z,1.50
2019-05-03T08:00:00.098Z,1.47
2019-05-03T08:05:05.762Z,1.45
2019-05-03T08:10:10.747Z,1.13
2019-05-03T08:15:16.818Z,1.40
2019-05-03T08:20:24.698Z,0.97
2019-05-03T08:25:28.932Z,1.25
2019-05-03T08:30:44.444Z,1.27
2019-05-03T08:35:49.867Z,1.30
2019-05-03T08:40:56.399Z,1.15
2019-05-03T08:46:01.332Z,1.60
2019-05-03T08:51:06.150Z,1.17
2019-05-03T08:56:10.924Z,1.42
2019-05-03T09:01:15.868Z,1.27
2019-05-03T09:06:20.649Z,0.90
2019-05-03T09:11:33.988Z,1.20
2019-05-03T09:16:32.349Z,1.50
2019-05-03T09:21:37.176Z,1.27
2019-05-03T09:26:41.902Z,1.00
2019-05-03T09:31:46.668Z,0.80
2019-05-03T09:36:52.554Z,0.98
2019-05-03T09:41:57.454Z,1.30
2019-05-03T09:47:02.410Z,1.15
2019-05-03T09:52:08.470Z,1.05
2019-05-03T09:57:15.266Z,1.37
2019-05-03T10:02:20.254Z,1.27
2019-05-03T10:07:25.780Z,0.70
2019-05-03T10:12:31.008Z,1.17
2019-05-03T10:17:55.523Z,1.13
2019-05-03T10:23:12.356Z,0.97
2019-05-03T10:28:17.328Z,1.27
2019-05-03T10:33:26.792Z,1.25
2019-05-03T10:38:31.553Z,1.05
2019-05-03T10:43:36.871Z,1.07
2019-05-03T10:48:45.183Z,0.70
2019-05-03T10:53:55.490Z,1.07
2019-05-03T10:59:06.295Z,1.10
2019-05-03T11:04:11.299Z,1.30
2019-05-03T11:09:18.433Z,1.57
2019-05-03T11:14:25.296Z,1.10
2019-05-03T11:19:29.951Z,1.10
2019-05-03T11:24:35.149Z,1.00
2019-05-03T11:29:40.039Z,1.00
2019-05-03T11:34:51.165Z,0.90
2019-05-03T11:39:56.549Z,1.20
2019-05-03T11:45:04.567Z,1.35
2019-05-03T11:50:09.543Z,1.27
2019-05-03T11:55:16.015Z,1.17
2019-05-03T12:00:27.963Z,1.10
2019-05-03T12:05:33.204Z,1.30
2019-05-03T12:10:53.460Z,1.00
2019-05-03T12:15:45.006Z,1.10
2019-05-03T12:20:50.634Z,0.90
2019-05-03T12:25:56.609Z,1.07
2019-05-03T12:31:01.744Z,1.12
2019-05-03T12:36:06.772Z,1.40
2019-05-03T12:41:11.499Z,1.37
2019-05-03T12:46:16.839Z,1.45
2019-05-03T12:51:22.733Z,1.40
2019-05-03T12:56:32.538Z,1.00
2019-05-03T13:01:58.839Z,1.30
2019-05-03T13:07:14.812Z,1.05
2019-05-03T13:12:22.248Z,1.10
2019-05-03T13:17:36.740Z,0.85
2019-05-03T13:22:41.529Z,1.30
2019-05-03T13:27:46.448Z,1.05
2019-05-03T13:32:54.780Z,1.12
2019-05-03T13:37:59.077Z,0.93
2019-05-03T13:43:06.616Z,1.12
2019-05-03T13:48:12.347Z,1.40
2019-05-03T13:53:17.212Z,1.10
2019-05-03T13:58:22.896Z,1.10
2019-05-03T14:03:27.637Z,1.10
2019-05-03T14:08:34.850Z,1.10
2019-05-03T14:13:38.889Z,1.07
2019-05-03T14:18:45.665Z,1.00
2019-05-03T14:24:08.066Z,1.20
2019-05-03T14:29:15.170Z,1.30
2019-05-03T14:34:20.914Z,1.22
2019-05-03T14:39:25.929Z,1.27
2019-05-03T14:44:30.825Z,1.17
2019-05-03T14:49:35.810Z,1.12
2019-05-03T14:54:42.313Z,1.30
2019-05-03T15:00:12.017Z,1.37
2019-05-03T15:05:16.705Z,1.30
2019-05-03T15:10:22.477Z,1.50
2019-05-03T15:15:29.013Z,1.42
2019-05-03T15:20:34.829Z,1.60
2019-05-03T15:25:39.977Z,1.10
2019-05-03T15:30:44.753Z,1.30
2019-05-03T15:35:49.687Z,1.40
2019-05-03T15:40:54.882Z,1.20
2019-05-03T15:46:19.198Z,1.52
2019-05-03T15:51:24.664Z,1.00
2019-05-03T15:56:29.628Z,1.10
2019-05-03T16:01:35.324Z,1.12
2019-05-03T16:06:40.347Z,1.22
2019-05-03T16:11:46.333Z,1.10
2019-05-03T16:16:57.182Z,1.42
2019-05-03T16:22:01.885Z,1.07
2019-05-03T16:27:42.055Z,1.30
2019-05-03T16:32:49.639Z,1.02
2019-05-03T16:37:54.487Z,1.50
2019-05-03T16:42:59.568Z,1.10
2019-05-03T16:48:09.425Z,1.27
2019-05-03T16:53:14.846Z,1.10
2019-05-03T16:58:20.855Z,1.07
2019-05-03T17:03:38.546Z,1.35
2019-05-03T17:09:05.114Z,1.25
2019-05-03T17:14:11.207Z,1.02
2019-05-03T17:19:17.274Z,1.22
2019-05-03T17:24:22.145Z,1.70
2019-05-03T17:29:26.887Z,1.30
2019-05-03T17:34:31.678Z,1.30
2019-05-03T17:40:14.825Z,1.27
2019-05-03T17:45:25.391Z,1.30
2019-05-03T17:50:30.183Z,1.17
2019-05-03T17:56:00.041Z,1.55
2019-05-03T18:01:24.126Z,1.15
2019-05-03T18:06:32.455Z,1.40
2019-05-03T18:11:42.266Z,1.40
2019-05-03T18:16:46.990Z,1.40
2019-05-03T18:21:51.723Z,1.62
2019-05-03T18:26:56.503Z,1.30
2019-05-03T18:32:01.269Z,1.15
2019-05-03T18:37:06.188Z,1.30
2019-05-03T18:42:14.267Z,1.37
2019-05-03T18:47:25.173Z,1.37
2019-05-03T18:52:29.970Z,1.60
2019-05-03T18:57:36.357Z,1.20
2019-05-03T19:02:41.304Z,1.60
2019-05-03T19:07:54.623Z,1.90
2019-05-03T19:13:04.759Z,2.10
2019-05-03T19:18:35.106Z,1.85
2019-05-03T19:23:39.774Z,2.08
2019-05-03T19:28:44.574Z,1.82
2019-05-03T19:33:49.359Z,1.87
2019-05-03T19:38:54.699Z,1.70
2019-05-03T19:44:00.608Z,2.58
2019-05-03T19:49:05.490Z,1.50
2019-05-03T19:54:10.359Z,1.80
2019-05-03T19:59:36.563Z,1.40
2019-05-03T20:05:14.803Z,2.00
2019-05-03T20:10:19.351Z,1.77
2019-05-03T20:15:25.065Z,2.02
2019-05-03T20:20:34.780Z,1.62
2019-05-03T20:25:39.578Z,2.08
2019-05-03T20:30:45.258Z,1.82
2019-05-03T20:35:50.036Z,1.70
2019-05-03T20:40:57.215Z,1.70
2019-05-03T20:46:06.237Z,1.67
2019-05-03T20:51:11.027Z,1.50
2019-05-03T20:56:15.718Z,1.70
2019-05-03T21:01:21.580Z,1.70
2019-05-03T21:06:34.884Z,1.70
2019-05-03T21:11:33.014Z,1.67
2019-05-03T21:16:45.188Z,1.83
2019-05-03T21:21:58.862Z,2.35
2019-05-03T21:27:05.061Z,2.10
2019-05-03T21:32:10.021Z,1.92
2019-05-03T21:37:15.148Z,2.22
2019-05-03T21:42:19.959Z,2.37
2019-05-03T21:47:35.591Z,2.02
2019-05-03T21:52:40.315Z,1.83
2019-05-03T21:57:45.098Z,1.80
2019-05-03T22:02:51.748Z,2.12
2019-05-03T22:07:56.469Z,2.02
2019-05-03T22:13:01.307Z,2.37
2019-05-03T22:18:21.916Z,2.00
2019-05-03T22:24:01.013Z,2.65
2019-05-03T22:29:05.910Z,1.98
2019-05-03T22:34:10.732Z,2.43
2019-05-03T22:39:15.910Z,2.50
2019-05-03T22:44:20.664Z,2.00
2019-05-03T22:49:26.189Z,2.50
2019-05-03T22:54:30.964Z,2.33
2019-05-03T22:59:35.756Z,2.12
2019-05-03T23:04:40.467Z,2.20
2019-05-03T23:09:45.182Z,2.77
2019-05-03T23:14:49.968Z,2.50
2019-05-03T23:19:59.559Z,2.60
2019-05-03T23:25:05.348Z,2.22
2019-05-03T23:30:10.148Z,2.43
2019-05-03T23:35:14.929Z,2.50
2019-05-03T23:40:19.792Z,2.40
2019-05-03T23:45:25.520Z,2.45
2019-05-03T23:50:30.578Z,2.23
2019-05-03T23:55:44.914Z,2.27
